X  Cerrar Datos meteorológicos de aviación METAR     EHRD Rotterdam The Hague Airport
Temperatura
18°C Temperatura
12°C Punto de rocío
68% Humedad



Viento
3 KM/H
2 MPH
1 M/S
2 NUDO



Calma
Norte
Condiciones actuales

Claro Claro
Presión 1024.92 (hPa) - 30.27 (inHg)
Visibilidad 6.2 (milla) - 10 (km)
Aeropuerto
Código de aeropuerto EHRD

localidad: Rotterdam The Hague Airport
Distancia: 16 (km)

Metar:
EHRD 131955Z AUTO VRB02KT 9999 NCD 18/12 Q1025 NOSIG

Hora: 13-06-2021 21:55 CEST